createdAt,value
2019-03-24T00:01:07.500Z,8.44
2019-03-24T00:01:17.977Z,8.39
2019-03-24T00:02:18.342Z,8.54
2019-03-24T00:03:23.732Z,8.36
2019-03-24T00:04:18.986Z,8.41
2019-03-24T00:05:19.290Z,8.46
2019-03-24T00:06:19.609Z,8.36
2019-03-24T00:07:19.962Z,8.26
2019-03-24T00:08:20.320Z,8.20
2019-03-24T00:09:20.592Z,8.32
2019-03-24T00:10:20.906Z,8.28
2019-03-24T00:11:21.225Z,8.20
2019-03-24T00:12:21.573Z,8.24
2019-03-24T00:13:21.920Z,8.18
2019-03-24T00:14:22.191Z,8.16
2019-03-24T00:15:26.155Z,8.09
2019-03-24T00:16:22.885Z,8.16
2019-03-24T00:17:23.203Z,8.09
2019-03-24T00:18:23.470Z,8.01
2019-03-24T00:19:23.774Z,8.02
2019-03-24T00:20:24.146Z,8.08
2019-03-24T00:21:24.461Z,8.05
2019-03-24T00:22:24.839Z,8.08
2019-03-24T00:23:25.111Z,8.06
2019-03-24T00:24:25.448Z,8.02
2019-03-24T00:25:25.818Z,8.02
2019-03-24T00:26:26.093Z,7.99
2019-03-24T00:27:26.458Z,8.01
2019-03-24T00:28:26.738Z,8.03
2019-03-24T00:29:27.057Z,8.02
2019-03-24T00:30:27.376Z,7.98
2019-03-24T00:31:27.703Z,8.03
2019-03-24T00:32:28.098Z,7.87
2019-03-24T00:33:28.487Z,7.95
2019-03-24T00:34:28.671Z,7.88
2019-03-24T00:35:29.011Z,7.87
2019-03-24T00:36:29.331Z,7.78
2019-03-24T00:37:29.678Z,7.84
2019-03-24T00:38:29.966Z,7.77
2019-03-24T00:39:30.290Z,7.83
2019-03-24T00:40:30.634Z,7.87
2019-03-24T00:41:31.073Z,7.75
2019-03-24T00:42:31.315Z,7.77
2019-03-24T00:43:31.580Z,7.72
2019-03-24T00:44:31.899Z,7.69
2019-03-24T00:45:36.729Z,7.72
2019-03-24T00:46:32.533Z,7.75
2019-03-24T00:47:32.899Z,7.70
2019-03-24T00:48:33.206Z,7.67
2019-03-24T00:49:33.564Z,7.61
2019-03-24T00:50:33.847Z,7.62
2019-03-24T00:51:34.167Z,7.59
2019-03-24T00:52:34.504Z,7.64
2019-03-24T00:53:34.802Z,7.59
2019-03-24T00:54:35.135Z,7.59
2019-03-24T00:55:35.464Z,7.58
2019-03-24T00:56:35.768Z,7.53
2019-03-24T00:57:37.469Z,7.58
2019-03-24T00:58:36.375Z,7.51
2019-03-24T00:59:36.722Z,7.46
2019-03-24T01:00:37.069Z,7.62
2019-03-24T01:01:37.378Z,7.48
2019-03-24T01:02:37.729Z,7.41
2019-03-24T01:03:38.029Z,7.43
2019-03-24T01:04:38.326Z,7.44
2019-03-24T01:05:38.723Z,7.55
2019-03-24T01:06:39.063Z,7.50
2019-03-24T01:07:39.319Z,7.51
2019-03-24T01:08:39.627Z,7.56
2019-03-24T01:09:39.931Z,7.50
2019-03-24T01:10:40.285Z,7.41
2019-03-24T01:11:40.592Z,7.43
2019-03-24T01:12:40.932Z,7.43
2019-03-24T01:13:41.248Z,7.28
2019-03-24T01:14:41.693Z,7.41
2019-03-24T01:15:47.633Z,7.32
2019-03-24T01:16:43.199Z,7.33
2019-03-24T01:17:42.540Z,7.31
2019-03-24T01:18:42.868Z,7.26
2019-03-24T01:19:43.175Z,7.22
2019-03-24T01:20:43.499Z,7.29
2019-03-24T01:21:43.820Z,7.22
2019-03-24T01:22:44.214Z,7.25
2019-03-24T01:23:44.459Z,7.18
2019-03-24T01:24:44.775Z,7.13
2019-03-24T01:25:45.100Z,7.19
2019-03-24T01:26:45.426Z,7.11
2019-03-24T01:27:45.758Z,7.08
2019-03-24T01:28:46.086Z,7.03
2019-03-24T01:29:46.408Z,7.01
2019-03-24T01:30:46.772Z,6.92
2019-03-24T01:31:47.026Z,6.92
2019-03-24T01:32:47.356Z,6.90
2019-03-24T01:33:47.710Z,6.89
2019-03-24T01:34:48.013Z,6.85
2019-03-24T01:35:48.355Z,6.80
2019-03-24T01:36:48.657Z,6.85
2019-03-24T01:37:48.971Z,6.89
2019-03-24T01:38:49.405Z,6.89
2019-03-24T01:39:49.684Z,6.83
2019-03-24T01:40:49.998Z,6.97
2019-03-24T01:41:50.309Z,6.93
2019-03-24T01:42:50.620Z,6.86
2019-03-24T01:43:51.215Z,6.86
2019-03-24T01:44:51.286Z,6.93
2019-03-24T01:45:58.118Z,6.87
2019-03-24T01:46:52.938Z,6.80
2019-03-24T01:47:52.385Z,6.83
2019-03-24T01:48:52.595Z,6.78
2019-03-24T01:49:52.884Z,6.75
2019-03-24T01:50:53.224Z,6.72
2019-03-24T01:51:53.530Z,6.71
2019-03-24T01:52:53.852Z,6.78
2019-03-24T01:53:54.176Z,6.72
2019-03-24T01:54:54.474Z,6.70
2019-03-24T01:55:54.921Z,6.71
2019-03-24T01:56:55.133Z,6.72
2019-03-24T01:57:55.459Z,6.70
2019-03-24T01:58:55.790Z,6.67
2019-03-24T01:59:56.103Z,6.68
2019-03-24T02:00:56.446Z,6.59
2019-03-24T02:01:56.748Z,6.54
2019-03-24T02:02:57.061Z,6.56
2019-03-24T02:03:57.481Z,6.56
2019-03-24T02:04:57.687Z,6.52
2019-03-24T02:05:58.046Z,6.50
2019-03-24T02:06:58.352Z,6.49
2019-03-24T02:07:58.675Z,6.46
2019-03-24T02:08:59.023Z,6.41
2019-03-24T02:09:59.324Z,6.38
2019-03-24T02:10:59.638Z,6.31
2019-03-24T02:12:00.022Z,6.34
2019-03-24T02:13:00.276Z,6.29
2019-03-24T02:14:00.622Z,6.29
2019-03-24T02:15:00.937Z,6.20
2019-03-24T02:16:09.020Z,6.10
2019-03-24T02:17:02.566Z,6.07
2019-03-24T02:18:01.904Z,6.16
2019-03-24T02:19:02.238Z,6.16
2019-03-24T02:20:02.587Z,6.34
2019-03-24T02:21:02.960Z,6.32
2019-03-24T02:22:03.175Z,6.28
2019-03-24T02:23:03.510Z,6.28
2019-03-24T02:24:03.857Z,6.15
2019-03-24T02:25:04.175Z,6.13
2019-03-24T02:26:04.494Z,6.12
2019-03-24T02:27:04.802Z,6.17
2019-03-24T02:28:05.113Z,6.20
2019-03-24T02:29:05.577Z,6.12
2019-03-24T02:30:05.788Z,6.16
2019-03-24T02:31:06.116Z,6.16
2019-03-24T02:32:06.399Z,6.16
2019-03-24T02:33:06.717Z,6.09
2019-03-24T02:34:07.074Z,6.13
2019-03-24T02:35:07.405Z,6.05
2019-03-24T02:36:07.732Z,6.12
2019-03-24T02:37:08.115Z,6.10
2019-03-24T02:38:08.345Z,6.05
2019-03-24T02:39:08.705Z,6.10
2019-03-24T02:40:09.024Z,6.17
2019-03-24T02:41:09.346Z,6.17
2019-03-24T02:42:09.650Z,6.15
2019-03-24T02:43:09.972Z,6.10
2019-03-24T02:44:10.366Z,6.05
2019-03-24T02:45:10.684Z,6.12
2019-03-24T02:46:23.172Z,6.12
2019-03-24T02:47:12.251Z,6.10
2019-03-24T02:48:11.578Z,6.05
2019-03-24T02:49:11.922Z,5.99
2019-03-24T02:50:12.216Z,6.02
2019-03-24T02:51:12.540Z,5.99
2019-03-24T02:52:12.875Z,6.05
2019-03-24T02:53:13.225Z,6.06
2019-03-24T02:54:13.556Z,6.02
2019-03-24T02:55:13.868Z,5.97
2019-03-24T02:56:14.190Z,5.90
2019-03-24T02:57:14.539Z,5.87
2019-03-24T02:58:38.761Z,5.87
2019-03-24T02:59:16.200Z,5.76
2019-03-24T03:00:15.527Z,5.69
2019-03-24T03:01:15.867Z,5.72
2019-03-24T03:02:16.254Z,5.79
2019-03-24T03:03:16.514Z,5.72
2019-03-24T03:04:16.854Z,5.70
2019-03-24T03:05:17.168Z,5.69
2019-03-24T03:06:17.467Z,5.67
2019-03-24T03:07:17.819Z,5.70
2019-03-24T03:08:18.152Z,5.72
2019-03-24T03:09:18.489Z,5.56
2019-03-24T03:10:18.901Z,5.56
2019-03-24T03:11:19.081Z,5.65
2019-03-24T03:12:19.434Z,5.54
2019-03-24T03:13:19.747Z,5.52
2019-03-24T03:14:20.090Z,5.56
2019-03-24T03:15:20.412Z,5.43
2019-03-24T03:16:20.720Z,5.37
2019-03-24T03:17:21.048Z,5.37
2019-03-24T03:18:21.413Z,5.38
2019-03-24T03:19:21.688Z,5.36
2019-03-24T03:20:22.006Z,5.28
2019-03-24T03:21:22.555Z,5.19
2019-03-24T03:22:22.668Z,5.19
2019-03-24T03:23:22.954Z,5.18
2019-03-24T03:24:23.302Z,5.25
2019-03-24T03:25:23.643Z,5.19
2019-03-24T03:26:24.019Z,5.15
2019-03-24T03:27:24.257Z,5.13
2019-03-24T03:28:24.562Z,5.16
2019-03-24T03:29:24.882Z,5.05
2019-03-24T03:30:25.222Z,5.08
2019-03-24T03:31:25.542Z,5.13
2019-03-24T03:32:25.882Z,5.04
2019-03-24T03:33:26.180Z,5.02
2019-03-24T03:34:26.579Z,4.94
2019-03-24T03:35:26.858Z,4.90
2019-03-24T03:36:27.166Z,4.92
2019-03-24T03:37:27.490Z,4.95
2019-03-24T03:38:27.791Z,4.94
2019-03-24T03:39:28.132Z,4.89
2019-03-24T03:40:28.448Z,4.95
2019-03-24T03:41:28.759Z,5.01
2019-03-24T03:42:29.134Z,5.01
2019-03-24T03:43:29.562Z,5.01
2019-03-24T03:44:29.756Z,5.04
2019-03-24T03:45:30.063Z,4.97
2019-03-24T03:46:30.388Z,4.92
2019-03-24T03:47:30.720Z,4.97
2019-03-24T03:48:31.024Z,4.84
2019-03-24T03:49:31.362Z,4.92
2019-03-24T03:50:31.689Z,4.94
2019-03-24T03:51:32.127Z,4.95
2019-03-24T03:52:32.351Z,4.92
2019-03-24T03:53:32.639Z,4.92
2019-03-24T03:54:32.977Z,4.87
2019-03-24T03:55:33.358Z,4.84
2019-03-24T03:56:33.588Z,4.89
2019-03-24T03:57:33.950Z,4.90
2019-03-24T03:58:34.265Z,4.94
2019-03-24T03:59:34.647Z,4.95
2019-03-24T04:00:34.897Z,4.92
2019-03-24T04:01:35.204Z,5.00
2019-03-24T04:02:35.527Z,4.90
2019-03-24T04:03:35.855Z,4.92
2019-03-24T04:04:36.172Z,4.92
2019-03-24T04:05:36.500Z,4.86
2019-03-24T04:06:36.823Z,4.92
2019-03-24T04:07:37.226Z,4.98
2019-03-24T04:08:37.416Z,4.94
2019-03-24T04:09:37.769Z,4.95
2019-03-24T04:10:38.109Z,4.92
2019-03-24T04:11:38.443Z,4.87
2019-03-24T04:12:38.774Z,4.89
2019-03-24T04:13:39.072Z,4.89
2019-03-24T04:14:39.367Z,4.92
2019-03-24T04:15:39.751Z,4.90
2019-03-24T04:16:40.124Z,4.83
2019-03-24T04:17:40.399Z,4.82
2019-03-24T04:18:40.706Z,4.78
2019-03-24T04:19:41.008Z,4.70
2019-03-24T04:20:41.363Z,4.68
2019-03-24T04:21:41.686Z,4.70
2019-03-24T04:22:42.006Z,4.68
2019-03-24T04:23:42.317Z,4.67
2019-03-24T04:24:42.745Z,4.64
2019-03-24T04:25:42.974Z,4.63
2019-03-24T04:26:43.286Z,4.78
2019-03-24T04:27:43.611Z,4.70
2019-03-24T04:28:43.917Z,4.82
2019-03-24T04:29:44.232Z,4.67
2019-03-24T04:30:44.601Z,4.70
2019-03-24T04:31:44.911Z,4.64
2019-03-24T04:32:45.380Z,4.61
2019-03-24T04:33:45.548Z,4.67
2019-03-24T04:34:45.873Z,4.60
2019-03-24T04:35:46.185Z,4.63
2019-03-24T04:36:46.523Z,4.63
2019-03-24T04:37:46.856Z,4.63
2019-03-24T04:38:47.161Z,4.64
2019-03-24T04:39:47.492Z,4.58
2019-03-24T04:40:47.847Z,4.66
2019-03-24T04:41:48.104Z,4.60
2019-03-24T04:42:48.458Z,4.60
2019-03-24T04:43:48.768Z,4.58
2019-03-24T04:44:49.085Z,4.60
2019-03-24T04:45:49.422Z,4.40
2019-03-24T04:46:49.744Z,4.40
2019-03-24T04:47:50.053Z,4.38
2019-03-24T04:48:50.440Z,4.40
2019-03-24T04:49:50.720Z,4.49
2019-03-24T04:50:51.047Z,4.38
2019-03-24T04:51:51.366Z,4.45
2019-03-24T04:52:51.666Z,4.42
2019-03-24T04:53:51.994Z,4.45
2019-03-24T04:54:57.134Z,4.50
2019-03-24T04:55:52.673Z,4.53
2019-03-24T04:56:53.015Z,4.57
2019-03-24T04:57:53.398Z,4.53
2019-03-24T04:58:53.836Z,4.45
2019-03-24T04:59:54.171Z,4.53
2019-03-24T05:00:54.525Z,4.48
2019-03-24T05:01:54.840Z,4.40
2019-03-24T05:02:55.160Z,4.45
2019-03-24T05:03:55.472Z,4.40
2019-03-24T05:04:55.777Z,4.36
2019-03-24T05:05:56.247Z,4.30
2019-03-24T05:06:56.430Z,4.28
2019-03-24T05:07:56.762Z,4.21
2019-03-24T05:08:57.052Z,4.28
2019-03-24T05:09:57.381Z,4.14
2019-03-24T05:10:57.730Z,4.22
2019-03-24T05:11:58.055Z,4.24
2019-03-24T05:12:58.388Z,4.22
2019-03-24T05:13:58.751Z,4.21
2019-03-24T05:14:58.982Z,4.18
2019-03-24T05:15:59.346Z,4.16
2019-03-24T05:16:59.654Z,4.21
2019-03-24T05:17:59.985Z,4.20
2019-03-24T05:19:00.290Z,4.22
2019-03-24T05:20:00.614Z,4.20
2019-03-24T05:21:00.931Z,4.31
2019-03-24T05:22:01.306Z,4.28
2019-03-24T05:23:01.599Z,4.31
2019-03-24T05:24:01.909Z,4.28
2019-03-24T05:25:02.233Z,4.32
2019-03-24T05:26:02.569Z,4.39
2019-03-24T05:27:02.885Z,4.39
2019-03-24T05:28:03.211Z,4.42
2019-03-24T05:29:03.521Z,4.42
2019-03-24T05:30:03.909Z,4.34
2019-03-24T05:31:04.218Z,4.36
2019-03-24T05:32:04.507Z,4.40
2019-03-24T05:33:04.845Z,4.39
2019-03-24T05:34:05.152Z,4.39
2019-03-24T05:35:05.737Z,4.31
2019-03-24T05:36:05.826Z,4.40
2019-03-24T05:37:06.151Z,4.40
2019-03-24T05:38:06.436Z,4.36
2019-03-24T05:39:06.916Z,4.40
2019-03-24T05:40:07.104Z,4.43
2019-03-24T05:41:07.443Z,4.42
2019-03-24T05:42:07.757Z,4.43
2019-03-24T05:43:08.055Z,4.39
2019-03-24T05:44:08.396Z,4.56
2019-03-24T05:45:08.728Z,4.48
2019-03-24T05:46:09.066Z,4.52
2019-03-24T05:47:09.549Z,4.52
2019-03-24T05:48:09.757Z,4.66
2019-03-24T05:49:10.037Z,4.63
2019-03-24T05:50:10.359Z,4.64
2019-03-24T05:51:10.699Z,4.57
2019-03-24T05:52:11.038Z,4.53
2019-03-24T05:53:11.327Z,4.60
2019-03-24T05:54:11.658Z,4.50
2019-03-24T05:55:12.071Z,4.50
2019-03-24T05:56:12.321Z,4.57
2019-03-24T05:57:12.673Z,4.63
2019-03-24T05:58:13.009Z,4.53
2019-03-24T05:59:13.304Z,4.60
2019-03-24T06:00:13.610Z,4.64
2019-03-24T06:01:13.969Z,4.61
2019-03-24T06:02:14.306Z,4.61
2019-03-24T06:03:14.635Z,4.64
2019-03-24T06:04:14.908Z,4.64
2019-03-24T06:05:15.206Z,4.75
2019-03-24T06:06:15.545Z,4.82
2019-03-24T06:07:15.886Z,4.84
2019-03-24T06:08:16.205Z,4.90
2019-03-24T06:09:16.533Z,4.95
2019-03-24T06:10:16.840Z,4.97
2019-03-24T06:11:17.181Z,5.04
2019-03-24T06:12:17.587Z,5.02
2019-03-24T06:13:17.826Z,5.01
2019-03-24T06:14:18.146Z,5.15
2019-03-24T06:15:18.446Z,5.07
2019-03-24T06:16:18.789Z,5.08
2019-03-24T06:17:19.075Z,5.12
2019-03-24T06:18:19.434Z,5.15
2019-03-24T06:19:19.779Z,5.22
2019-03-24T06:20:20.209Z,5.22
2019-03-24T06:21:20.421Z,5.20
2019-03-24T06:22:20.712Z,5.36
2019-03-24T06:23:21.063Z,5.29
2019-03-24T06:24:21.384Z,5.28
2019-03-24T06:25:21.695Z,5.43
2019-03-24T06:26:22.042Z,5.43
2019-03-24T06:27:22.344Z,5.56
2019-03-24T06:28:22.791Z,5.64
2019-03-24T06:29:22.997Z,5.64
2019-03-24T06:30:23.300Z,5.67
2019-03-24T06:31:23.626Z,5.79
2019-03-24T06:32:23.945Z,5.76
2019-03-24T06:33:24.260Z,5.80
2019-03-24T06:34:24.608Z,5.84
2019-03-24T06:35:24.928Z,5.79
2019-03-24T06:36:25.552Z,5.87
2019-03-24T06:37:25.558Z,6.01
2019-03-24T06:38:25.894Z,6.01
2019-03-24T06:39:26.208Z,5.98
2019-03-24T06:40:26.529Z,6.06
2019-03-24T06:41:26.888Z,6.05
2019-03-24T06:42:27.187Z,6.09
2019-03-24T06:43:27.517Z,6.06
2019-03-24T06:44:27.881Z,6.17
2019-03-24T06:45:29.023Z,6.16
2019-03-24T06:46:28.613Z,6.26
2019-03-24T06:47:28.915Z,6.34
2019-03-24T06:48:29.256Z,6.44
2019-03-24T06:49:29.591Z,6.50
2019-03-24T06:50:29.902Z,6.53
2019-03-24T06:51:30.234Z,6.70
2019-03-24T06:52:30.569Z,6.89
2019-03-24T06:53:30.992Z,6.75
2019-03-24T06:54:31.235Z,6.75
2019-03-24T06:55:31.547Z,6.74
2019-03-24T06:56:31.880Z,6.74
2019-03-24T06:57:32.207Z,6.86
2019-03-24T06:58:32.544Z,6.89
2019-03-24T06:59:33.875Z,6.78
2019-03-24T07:00:35.716Z,7.00
2019-03-24T07:01:33.616Z,6.97
2019-03-24T07:02:33.844Z,7.01
2019-03-24T07:03:34.193Z,7.05
2019-03-24T07:04:34.528Z,7.15
2019-03-24T07:05:34.830Z,7.22
2019-03-24T07:06:35.185Z,7.28
2019-03-24T07:07:35.480Z,7.14
2019-03-24T07:08:35.835Z,7.13
2019-03-24T07:09:36.224Z,7.19
2019-03-24T07:10:36.474Z,7.14
2019-03-24T07:11:36.818Z,7.15
2019-03-24T07:12:37.112Z,7.18
2019-03-24T07:13:37.478Z,7.19
2019-03-24T07:14:37.820Z,7.26
2019-03-24T07:15:38.131Z,7.28
2019-03-24T07:16:38.460Z,7.23
2019-03-24T07:17:38.837Z,7.29
2019-03-24T07:18:39.035Z,7.36
2019-03-24T07:19:39.376Z,7.26
2019-03-24T07:20:39.694Z,7.33
2019-03-24T07:21:40.005Z,7.37
2019-03-24T07:22:40.370Z,7.41
2019-03-24T07:23:40.685Z,7.39
2019-03-24T07:24:41.015Z,7.36
2019-03-24T07:25:41.633Z,7.39
2019-03-24T07:26:41.771Z,7.33
2019-03-24T07:27:42.051Z,7.37
2019-03-24T07:28:42.389Z,7.46
2019-03-24T07:29:42.717Z,7.44
2019-03-24T07:30:43.027Z,7.48
2019-03-24T07:31:43.360Z,7.43
2019-03-24T07:32:43.702Z,7.47
2019-03-24T07:33:44.047Z,7.48
2019-03-24T07:34:44.439Z,7.51
2019-03-24T07:35:44.672Z,7.44
2019-03-24T07:36:45.000Z,7.41
2019-03-24T07:37:45.346Z,7.50
2019-03-24T07:38:45.648Z,7.43
2019-03-24T07:39:45.991Z,7.44
2019-03-24T07:40:46.313Z,7.56
2019-03-24T07:41:46.643Z,7.51
2019-03-24T07:42:47.098Z,7.48
2019-03-24T07:43:47.280Z,7.59
2019-03-24T07:44:47.650Z,7.69
2019-03-24T07:45:47.968Z,7.74
2019-03-24T07:46:48.296Z,7.75
2019-03-24T07:47:48.989Z,7.77
2019-03-24T07:48:48.954Z,7.81
2019-03-24T07:49:49.312Z,7.90
2019-03-24T07:50:49.653Z,8.13
2019-03-24T07:51:49.925Z,8.14
2019-03-24T07:52:50.309Z,8.23
2019-03-24T07:53:50.596Z,8.26
2019-03-24T07:54:50.955Z,8.41
2019-03-24T07:55:51.235Z,8.39
2019-03-24T07:56:51.565Z,8.42
2019-03-24T07:57:51.924Z,8.54
2019-03-24T07:58:52.291Z,8.52
2019-03-24T07:59:52.576Z,8.44
2019-03-24T08:00:52.886Z,8.53
2019-03-24T08:01:53.207Z,8.54
2019-03-24T08:02:53.562Z,8.44
2019-03-24T08:03:53.868Z,8.42
2019-03-24T08:04:54.233Z,8.45
2019-03-24T08:05:54.537Z,8.34
2019-03-24T08:06:54.892Z,8.34
2019-03-24T08:07:55.273Z,8.36
2019-03-24T08:08:55.523Z,8.32
2019-03-24T08:09:55.898Z,8.41
2019-03-24T08:10:56.185Z,8.39
2019-03-24T08:11:56.502Z,8.52
2019-03-24T08:12:56.910Z,8.49
2019-03-24T08:13:57.177Z,8.36
2019-03-24T08:14:59.858Z,8.26
2019-03-24T08:15:58.213Z,8.34
2019-03-24T08:16:58.175Z,8.24
2019-03-24T08:17:58.494Z,8.23
2019-03-24T08:19:12.189Z,8.24
2019-03-24T08:19:59.183Z,8.21
2019-03-24T08:20:59.498Z,8.28
2019-03-24T08:21:59.832Z,8.23
2019-03-24T08:23:00.175Z,8.21
2019-03-24T08:24:00.548Z,8.18
2019-03-24T08:25:00.809Z,8.28
2019-03-24T08:26:01.150Z,8.34
2019-03-24T08:27:01.481Z,8.34
2019-03-24T08:28:01.824Z,8.38
2019-03-24T08:29:02.139Z,8.49
2019-03-24T08:30:02.461Z,8.56
2019-03-24T08:31:02.814Z,8.66
2019-03-24T08:32:03.160Z,8.68
2019-03-24T08:33:03.450Z,8.56
2019-03-24T08:34:03.777Z,8.71
2019-03-24T08:35:04.129Z,8.69
2019-03-24T08:36:04.432Z,8.66
2019-03-24T08:37:04.762Z,8.63
2019-03-24T08:38:05.101Z,8.74
2019-03-24T08:39:05.418Z,8.72
2019-03-24T08:40:05.803Z,8.68
2019-03-24T08:41:06.105Z,8.68
2019-03-24T08:42:06.406Z,8.66
2019-03-24T08:43:06.751Z,8.69
2019-03-24T08:44:07.101Z,8.87
2019-03-24T08:45:07.402Z,8.77
2019-03-24T08:46:07.740Z,8.86
2019-03-24T08:47:08.035Z,8.87
2019-03-24T08:48:08.417Z,8.89
2019-03-24T08:49:08.831Z,8.97
2019-03-24T08:50:09.080Z,9.03
2019-03-24T08:51:09.400Z,9.05
2019-03-24T08:52:09.694Z,9.05
2019-03-24T08:53:10.057Z,9.21
2019-03-24T08:54:10.368Z,9.24
2019-03-24T08:55:10.706Z,9.30
2019-03-24T08:56:11.041Z,9.34
2019-03-24T08:57:11.461Z,9.40
2019-03-24T08:58:11.710Z,9.40
2019-03-24T08:59:12.026Z,9.52
2019-03-24T09:00:12.348Z,9.48
2019-03-24T09:01:12.695Z,9.67
2019-03-24T09:02:13.004Z,9.82
2019-03-24T09:03:13.336Z,10.00
2019-03-24T09:04:13.666Z,10.03
2019-03-24T09:05:14.074Z,10.06
2019-03-24T09:06:14.338Z,10.02
2019-03-24T09:07:14.656Z,9.94
2019-03-24T09:08:15.066Z,9.73
2019-03-24T09:09:15.298Z,9.72
2019-03-24T09:10:15.677Z,9.77
2019-03-24T09:11:16.028Z,9.76
2019-03-24T09:12:16.302Z,9.72
2019-03-24T09:13:16.682Z,9.73
2019-03-24T09:14:16.925Z,9.69
2019-03-24T09:15:17.316Z,9.73
2019-03-24T09:16:17.620Z,9.69
2019-03-24T09:17:17.938Z,9.67
2019-03-24T09:18:18.292Z,9.80
2019-03-24T09:19:18.603Z,9.77
2019-03-24T09:20:18.942Z,9.72
2019-03-24T09:21:19.560Z,9.69
2019-03-24T09:22:20.884Z,9.76
2019-03-24T09:23:20.996Z,9.70
2019-03-24T09:24:20.259Z,9.66
2019-03-24T09:25:20.597Z,9.76
2019-03-24T09:26:20.936Z,9.76
2019-03-24T09:27:21.264Z,9.73
2019-03-24T09:28:21.592Z,9.72
2019-03-24T09:29:21.948Z,9.84
2019-03-24T09:30:22.386Z,9.70
2019-03-24T09:31:22.619Z,9.72
2019-03-24T09:32:22.925Z,9.73
2019-03-24T09:33:23.255Z,9.82
2019-03-24T09:34:23.593Z,9.85
2019-03-24T09:35:23.943Z,9.85
2019-03-24T09:36:24.280Z,9.90
2019-03-24T09:37:24.580Z,10.00
2019-03-24T09:38:25.028Z,10.00
2019-03-24T09:39:25.255Z,9.99
2019-03-24T09:40:25.569Z,10.05
2019-03-24T09:41:25.910Z,10.06
2019-03-24T09:42:26.213Z,10.18
2019-03-24T09:43:26.556Z,10.12
2019-03-24T09:44:26.896Z,10.07
2019-03-24T09:45:27.215Z,10.03
2019-03-24T09:46:27.609Z,10.06
2019-03-24T09:47:27.845Z,10.10
2019-03-24T09:48:28.191Z,10.17
2019-03-24T09:49:28.563Z,10.17
2019-03-24T09:50:28.864Z,10.23
2019-03-24T09:51:29.218Z,10.33
2019-03-24T09:52:29.521Z,10.34
2019-03-24T09:53:29.829Z,10.39
2019-03-24T09:54:30.219Z,10.30
2019-03-24T09:55:30.496Z,10.34
2019-03-24T09:56:31.094Z,10.25
2019-03-24T09:57:31.168Z,10.39
2019-03-24T09:58:31.509Z,10.31
2019-03-24T09:59:31.829Z,10.33
2019-03-24T10:00:32.156Z,10.28
2019-03-24T10:01:32.522Z,10.28
2019-03-24T10:02:32.848Z,10.25
2019-03-24T10:03:33.240Z,10.25
2019-03-24T10:04:33.478Z,10.28
2019-03-24T10:05:33.807Z,10.34
2019-03-24T10:06:34.172Z,10.41
2019-03-24T10:07:34.463Z,10.45
2019-03-24T10:08:34.792Z,10.46
2019-03-24T10:09:35.140Z,10.36
2019-03-24T10:10:35.436Z,10.36
2019-03-24T10:11:35.920Z,10.33
2019-03-24T10:12:36.123Z,10.24
2019-03-24T10:13:36.451Z,10.34
2019-03-24T10:14:36.801Z,10.30
2019-03-24T10:15:37.097Z,10.30
2019-03-24T10:16:37.468Z,10.28
2019-03-24T10:17:37.772Z,10.38
2019-03-24T10:18:38.102Z,10.45
2019-03-24T10:19:38.527Z,10.53
2019-03-24T10:20:38.722Z,10.58
2019-03-24T10:21:39.120Z,10.48
2019-03-24T10:22:39.409Z,10.55
2019-03-24T10:23:39.739Z,10.65
2019-03-24T10:24:40.090Z,10.64
2019-03-24T10:25:40.399Z,10.46
2019-03-24T10:26:40.722Z,10.53
2019-03-24T10:27:41.094Z,10.57
2019-03-24T10:28:41.368Z,10.48
2019-03-24T10:29:41.719Z,10.45
2019-03-24T10:30:42.026Z,10.38
2019-03-24T10:31:42.577Z,10.41
2019-03-24T10:32:42.667Z,10.36
2019-03-24T10:33:43.021Z,10.36
2019-03-24T10:34:43.392Z,10.34
2019-03-24T10:35:43.751Z,10.45
2019-03-24T10:36:44.155Z,10.43
2019-03-24T10:37:44.407Z,10.53
2019-03-24T10:38:44.704Z,10.58
2019-03-24T10:39:45.065Z,10.65
2019-03-24T10:40:45.377Z,10.77
2019-03-24T10:41:45.707Z,10.72
2019-03-24T10:42:46.075Z,10.83
2019-03-24T10:43:46.376Z,10.95
2019-03-24T10:44:46.810Z,10.94
2019-03-24T10:45:47.017Z,10.82
2019-03-24T10:46:47.353Z,10.79
2019-03-24T10:47:47.718Z,10.76
2019-03-24T10:48:47.995Z,10.76
2019-03-24T10:49:48.340Z,10.79
2019-03-24T10:50:48.665Z,10.65
2019-03-24T10:51:48.987Z,10.76
2019-03-24T10:52:49.481Z,10.83
2019-03-24T10:53:49.648Z,10.92
2019-03-24T10:54:54.759Z,11.01
2019-03-24T10:55:50.321Z,11.07
2019-03-24T10:56:50.650Z,11.01
2019-03-24T10:57:51.007Z,11.02
2019-03-24T10:58:51.302Z,11.08
2019-03-24T10:59:51.656Z,10.95
2019-03-24T11:00:52.043Z,11.08
2019-03-24T11:01:52.280Z,10.89
2019-03-24T11:02:52.651Z,11.00
2019-03-24T11:03:52.947Z,11.02
2019-03-24T11:04:53.287Z,11.01
2019-03-24T11:05:53.582Z,11.00
2019-03-24T11:06:53.931Z,11.01
2019-03-24T11:07:54.309Z,11.04
2019-03-24T11:08:54.664Z,11.18
2019-03-24T11:09:54.934Z,11.16
2019-03-24T11:10:55.249Z,11.20
2019-03-24T11:11:55.561Z,11.26
2019-03-24T11:12:55.949Z,11.22
2019-03-24T11:13:56.259Z,11.20
2019-03-24T11:14:56.611Z,11.23
2019-03-24T11:15:56.921Z,11.19
2019-03-24T11:16:57.277Z,11.30
2019-03-24T11:17:57.640Z,11.30
2019-03-24T11:18:57.907Z,11.44
2019-03-24T11:19:58.254Z,11.49
2019-03-24T11:20:58.559Z,11.56
2019-03-24T11:21:58.888Z,11.68
2019-03-24T11:22:59.256Z,11.74
2019-03-24T11:23:59.549Z,11.83
2019-03-24T11:24:59.915Z,11.83
2019-03-24T11:26:00.356Z,11.91
2019-03-24T11:27:00.569Z,11.83
2019-03-24T11:28:00.910Z,11.78
2019-03-24T11:29:01.227Z,11.85
2019-03-24T11:30:01.574Z,11.86
2019-03-24T11:31:01.893Z,12.03
2019-03-24T11:32:02.212Z,12.07
2019-03-24T11:33:02.581Z,11.97
2019-03-24T11:34:02.986Z,12.14
2019-03-24T11:35:03.452Z,12.15
2019-03-24T11:36:03.538Z,12.26
2019-03-24T11:37:03.866Z,12.33
2019-03-24T11:38:04.225Z,12.28
2019-03-24T11:39:04.507Z,12.23
2019-03-24T11:40:04.868Z,12.12
2019-03-24T11:41:05.182Z,12.21
2019-03-24T11:42:05.557Z,12.39
2019-03-24T11:43:05.866Z,12.39
2019-03-24T11:44:06.164Z,12.32
2019-03-24T11:45:06.477Z,12.35
2019-03-24T11:46:06.805Z,12.47
2019-03-24T11:47:07.155Z,12.43
2019-03-24T11:48:07.518Z,12.37
2019-03-24T11:49:07.806Z,12.39
2019-03-24T11:50:08.187Z,12.36
2019-03-24T11:51:08.447Z,12.53
2019-03-24T11:52:08.814Z,12.54
2019-03-24T11:53:09.181Z,12.68
2019-03-24T11:54:09.473Z,12.76
2019-03-24T11:55:09.804Z,13.01
2019-03-24T11:56:10.152Z,13.06
2019-03-24T11:57:10.464Z,13.13
2019-03-24T11:58:10.853Z,13.21
2019-03-24T11:59:11.254Z,13.24
2019-03-24T12:00:11.513Z,13.26
2019-03-24T12:01:11.859Z,13.27
2019-03-24T12:02:12.153Z,13.20
2019-03-24T12:03:12.536Z,13.09
2019-03-24T12:04:12.830Z,13.13
2019-03-24T12:05:13.162Z,13.08
2019-03-24T12:06:14.866Z,13.02
2019-03-24T12:07:13.959Z,13.03
2019-03-24T12:08:14.214Z,13.06
2019-03-24T12:09:14.481Z,13.20
2019-03-24T12:10:14.812Z,13.28
2019-03-24T12:11:15.165Z,13.42
2019-03-24T12:12:15.518Z,13.61
2019-03-24T12:13:15.851Z,13.62
2019-03-24T12:14:16.142Z,13.78
2019-03-24T12:15:16.545Z,13.93
2019-03-24T12:16:16.822Z,13.95
2019-03-24T12:17:17.146Z,14.01
2019-03-24T12:18:17.493Z,14.15
2019-03-24T12:19:17.799Z,14.36
2019-03-24T12:20:18.133Z,14.37
2019-03-24T12:21:19.297Z,14.43
2019-03-24T12:22:18.790Z,14.48
2019-03-24T12:23:20.952Z,14.48
2019-03-24T12:24:19.422Z,14.53
2019-03-24T12:25:19.773Z,14.53
2019-03-24T12:26:20.132Z,14.59
2019-03-24T12:27:20.442Z,14.59
2019-03-24T12:28:20.821Z,14.63
2019-03-24T12:29:21.101Z,14.63
2019-03-24T12:30:21.424Z,14.68
2019-03-24T12:31:21.844Z,14.63
2019-03-24T12:32:22.117Z,14.81
2019-03-24T12:33:22.469Z,14.92
2019-03-24T12:34:22.765Z,15.04
2019-03-24T12:35:23.095Z,15.22
2019-03-24T12:36:23.423Z,15.32
2019-03-24T12:37:23.757Z,15.45
2019-03-24T12:38:24.138Z,15.63
2019-03-24T12:39:24.444Z,15.73
2019-03-24T12:40:24.854Z,15.91
2019-03-24T12:41:25.100Z,15.76
2019-03-24T12:42:25.413Z,15.60
2019-03-24T12:43:25.785Z,15.36
2019-03-24T12:44:26.067Z,15.44
2019-03-24T12:45:26.403Z,15.50
2019-03-24T12:46:26.724Z,15.29
2019-03-24T12:47:27.039Z,15.14
2019-03-24T12:48:27.673Z,14.99
2019-03-24T12:49:27.711Z,14.89
2019-03-24T12:50:31.493Z,14.74
2019-03-24T12:51:28.379Z,14.68
2019-03-24T12:52:28.703Z,14.52
2019-03-24T12:53:29.805Z,14.44
2019-03-24T12:54:29.400Z,14.40
2019-03-24T12:55:29.735Z,14.37
2019-03-24T12:56:30.145Z,14.34
2019-03-24T12:57:30.358Z,14.41
2019-03-24T12:58:30.740Z,14.38
2019-03-24T12:59:31.056Z,14.41
2019-03-24T13:00:31.385Z,14.31
2019-03-24T13:01:31.735Z,14.22
2019-03-24T13:02:32.036Z,14.19
2019-03-24T13:03:32.392Z,14.18
2019-03-24T13:04:32.774Z,14.20
2019-03-24T13:05:33.031Z,14.16
2019-03-24T13:06:33.378Z,14.43
2019-03-24T13:07:33.694Z,14.40
2019-03-24T13:08:34.006Z,14.58
2019-03-24T13:09:34.377Z,14.70
2019-03-24T13:10:34.694Z,14.73
2019-03-24T13:11:35.042Z,14.85
2019-03-24T13:12:35.421Z,14.99
2019-03-24T13:13:35.725Z,14.99
2019-03-24T13:14:36.472Z,14.78
2019-03-24T13:15:36.347Z,14.87